createdAt,value
2022-12-09T00:00:38.234Z,18.67
2022-12-09T00:01:39.699Z,18.73
2022-12-09T00:02:41.667Z,18.33
2022-12-09T00:03:43.426Z,19.80
2022-12-09T00:04:45.753Z,19.73
2022-12-09T00:05:48.004Z,17.20
2022-12-09T00:06:50.112Z,19.33
2022-12-09T00:07:51.734Z,18.00
2022-12-09T00:08:54.052Z,21.27
2022-12-09T00:09:55.747Z,20.80
2022-12-09T00:10:57.155Z,19.20
2022-12-09T00:11:58.593Z,19.33
2022-12-09T00:13:00.202Z,21.43
2022-12-09T00:14:01.726Z,18.03
2022-12-09T00:15:03.636Z,20.30
2022-12-09T00:16:10.169Z,19.73
2022-12-09T00:17:12.065Z,18.80
2022-12-09T00:18:13.898Z,19.00
2022-12-09T00:19:15.394Z,21.13
2022-12-09T00:20:17.496Z,15.83
2022-12-09T00:21:21.040Z,19.90
2022-12-09T00:22:22.908Z,20.20
2022-12-09T00:23:24.453Z,20.40
2022-12-09T00:24:26.197Z,18.60
2022-12-09T00:25:27.818Z,19.97
2022-12-09T00:26:29.950Z,20.33
2022-12-09T00:27:31.608Z,20.27
2022-12-09T00:28:33.418Z,18.63
2022-12-09T00:29:35.573Z,20.47
2022-12-09T00:30:37.129Z,18.97
2022-12-09T00:31:38.741Z,18.83
2022-12-09T00:32:40.904Z,18.90
2022-12-09T00:33:43.838Z,18.77
2022-12-09T00:34:45.625Z,19.37
2022-12-09T00:35:47.396Z,18.30
2022-12-09T00:36:48.922Z,18.80
2022-12-09T00:37:50.592Z,16.40
2022-12-09T00:38:53.364Z,17.63
2022-12-09T00:39:55.433Z,20.50
2022-12-09T00:40:57.300Z,19.23
2022-12-09T00:41:59.107Z,19.33
2022-12-09T00:43:01.212Z,20.17
2022-12-09T00:44:07.434Z,20.77
2022-12-09T00:45:10.005Z,18.10
2022-12-09T00:46:12.864Z,20.00
2022-12-09T00:47:15.058Z,19.93
2022-12-09T00:48:17.023Z,17.20
2022-12-09T00:49:19.553Z,19.37
2022-12-09T00:50:22.147Z,18.80
2022-12-09T00:51:25.794Z,18.23
2022-12-09T00:52:29.004Z,20.03
2022-12-09T00:53:32.414Z,20.27
2022-12-09T00:54:34.010Z,21.27
2022-12-09T00:55:35.569Z,17.40
2022-12-09T00:56:37.456Z,20.97
2022-12-09T00:57:40.517Z,20.70
2022-12-09T00:58:42.371Z,18.20
2022-12-09T00:59:44.033Z,17.27
2022-12-09T01:00:45.755Z,18.57
2022-12-09T01:01:47.377Z,20.33
2022-12-09T01:02:52.880Z,17.80
2022-12-09T01:03:55.273Z,20.87
2022-12-09T01:04:57.419Z,19.10
2022-12-09T01:05:59.543Z,18.63
2022-12-09T01:07:01.175Z,18.73
2022-12-09T01:08:02.765Z,20.73
2022-12-09T01:09:04.627Z,19.07
2022-12-09T01:10:07.831Z,20.63
2022-12-09T01:11:18.736Z,16.63
2022-12-09T01:12:20.629Z,19.13
2022-12-09T01:13:22.171Z,21.10
2022-12-09T01:14:24.070Z,19.10
2022-12-09T01:15:25.803Z,18.40
2022-12-09T01:16:28.473Z,18.50
2022-12-09T01:17:30.302Z,18.27
2022-12-09T01:18:32.071Z,19.27
2022-12-09T01:19:34.373Z,18.47
2022-12-09T01:20:35.948Z,19.23
2022-12-09T01:21:37.461Z,19.10
2022-12-09T01:22:40.811Z,17.43
2022-12-09T01:23:43.182Z,19.83
2022-12-09T01:24:45.048Z,21.00
2022-12-09T01:25:49.806Z,20.07
2022-12-09T01:26:51.418Z,19.17
2022-12-09T01:27:53.842Z,21.13
2022-12-09T01:28:57.655Z,19.07
2022-12-09T01:29:59.403Z,21.67
2022-12-09T01:31:07.069Z,21.30
2022-12-09T01:32:08.966Z,21.20
2022-12-09T01:33:10.738Z,20.70
2022-12-09T01:34:12.225Z,21.20
2022-12-09T01:35:13.929Z,18.27
2022-12-09T01:36:17.434Z,21.83
2022-12-09T01:37:18.925Z,21.00
2022-12-09T01:38:20.395Z,21.20
2022-12-09T01:39:21.852Z,22.30
2022-12-09T01:40:23.764Z,20.70
2022-12-09T01:41:25.628Z,22.33
2022-12-09T01:42:27.858Z,20.93
2022-12-09T01:43:29.391Z,22.40
2022-12-09T01:44:34.054Z,19.17
2022-12-09T01:45:40.765Z,19.60
2022-12-09T01:46:42.886Z,19.77
2022-12-09T01:47:44.782Z,21.63
2022-12-09T01:48:47.270Z,20.07
2022-12-09T01:49:49.420Z,20.73
2022-12-09T01:50:53.975Z,19.97
2022-12-09T01:52:01.053Z,20.40
2022-12-09T01:53:02.788Z,20.80
2022-12-09T01:54:05.020Z,20.57
2022-12-09T01:55:07.572Z,20.70
2022-12-09T01:56:12.269Z,21.23
2022-12-09T01:57:14.606Z,20.33
2022-12-09T01:58:17.399Z,19.13
2022-12-09T01:59:19.312Z,19.17
2022-12-09T02:00:21.091Z,19.30
2022-12-09T02:01:25.310Z,17.73
2022-12-09T02:02:34.856Z,19.80
2022-12-09T02:03:39.871Z,19.97
2022-12-09T02:04:42.677Z,18.77
2022-12-09T02:05:45.441Z,18.87
2022-12-09T02:06:47.409Z,17.57
2022-12-09T02:07:57.262Z,17.37
2022-12-09T02:08:59.620Z,16.77
2022-12-09T02:10:06.259Z,16.87
2022-12-09T02:11:16.610Z,18.43
2022-12-09T02:12:26.328Z,19.67
2022-12-09T02:13:31.888Z,20.13
2022-12-09T02:15:14.655Z,16.93
2022-12-09T02:16:19.338Z,18.17
2022-12-09T02:17:30.229Z,18.67
2022-12-09T02:18:36.781Z,19.93
2022-12-09T02:19:41.237Z,18.57
2022-12-09T02:20:48.964Z,19.17
2022-12-09T02:22:00.049Z,22.07
2022-12-09T02:23:05.055Z,20.50
2022-12-09T02:24:06.994Z,19.87
2022-12-09T02:25:11.558Z,22.07
2022-12-09T02:26:19.733Z,23.80
2022-12-09T02:27:32.998Z,24.00
2022-12-09T02:28:44.628Z,23.70
2022-12-09T02:29:55.849Z,21.57
2022-12-09T02:31:09.841Z,24.27
2022-12-09T02:32:17.960Z,23.00
2022-12-09T02:33:38.575Z,23.60
2022-12-09T02:34:44.273Z,22.90
2022-12-09T02:35:52.683Z,23.17
2022-12-09T02:37:13.930Z,23.07
2022-12-09T02:38:21.635Z,20.73
2022-12-09T02:39:29.988Z,25.03
2022-12-09T02:40:36.654Z,24.10
2022-12-09T02:41:43.053Z,22.27
2022-12-09T02:42:47.049Z,23.97
2022-12-09T02:43:50.852Z,21.93
2022-12-09T02:44:58.439Z,24.87
2022-12-09T02:46:00.490Z,23.37
2022-12-09T02:47:03.911Z,23.20
2022-12-09T02:48:07.048Z,25.97
2022-12-09T02:49:09.665Z,22.40
2022-12-09T02:50:13.460Z,22.10
2022-12-09T02:51:18.160Z,21.57
2022-12-09T02:52:19.984Z,23.10
2022-12-09T02:53:21.602Z,24.73
2022-12-09T02:54:24.555Z,22.10
2022-12-09T02:55:27.668Z,19.20
2022-12-09T02:56:29.561Z,18.63
2022-12-09T02:57:31.909Z,19.87
2022-12-09T02:58:33.499Z,21.97
2022-12-09T02:59:35.651Z,20.50
2022-12-09T03:00:37.728Z,20.43
2022-12-09T03:01:50.066Z,21.87
2022-12-09T03:02:53.893Z,21.73
2022-12-09T03:03:55.872Z,20.50
2022-12-09T03:04:57.330Z,19.97
2022-12-09T03:06:06.750Z,23.47
2022-12-09T03:07:13.895Z,20.80
2022-12-09T03:08:29.039Z,19.43
2022-12-09T03:09:33.991Z,18.60
2022-12-09T03:10:39.348Z,20.83
2022-12-09T03:11:41.426Z,21.40
2022-12-09T03:12:45.229Z,21.27
2022-12-09T03:13:49.852Z,19.43
2022-12-09T03:14:52.796Z,19.80
2022-12-09T03:15:58.292Z,21.00
2022-12-09T03:16:59.732Z,19.40
2022-12-09T03:18:04.122Z,20.80
2022-12-09T03:19:15.254Z,21.53
2022-12-09T03:20:21.196Z,21.30
2022-12-09T03:21:23.878Z,19.60
2022-12-09T03:22:27.979Z,21.40
2022-12-09T03:23:30.505Z,18.60
2022-12-09T03:24:38.215Z,20.40
2022-12-09T03:25:42.571Z,18.37
2022-12-09T03:26:44.404Z,18.13
2022-12-09T03:28:05.656Z,20.73
2022-12-09T03:29:11.026Z,20.70
2022-12-09T03:30:13.842Z,20.17
2022-12-09T03:31:18.553Z,18.63
2022-12-09T03:32:23.826Z,19.57
2022-12-09T03:33:26.552Z,19.33
2022-12-09T03:34:32.335Z,21.03
2022-12-09T03:35:39.621Z,18.97
2022-12-09T03:36:42.227Z,20.20
2022-12-09T03:37:44.358Z,18.90
2022-12-09T03:38:47.538Z,19.13
2022-12-09T03:39:49.556Z,19.50
2022-12-09T03:40:53.943Z,22.80
2022-12-09T03:41:56.798Z,20.23
2022-12-09T03:43:10.941Z,19.20
2022-12-09T03:44:22.170Z,20.37
2022-12-09T03:45:24.845Z,20.60
2022-12-09T03:46:28.346Z,20.47
2022-12-09T03:47:30.230Z,21.47
2022-12-09T03:48:32.455Z,18.53
2022-12-09T03:49:33.951Z,18.97
2022-12-09T03:50:58.918Z,20.77
2022-12-09T03:52:21.976Z,20.80
2022-12-09T03:53:32.851Z,18.63
2022-12-09T03:54:42.160Z,20.23
2022-12-09T03:56:06.295Z,19.00
2022-12-09T03:57:13.650Z,19.17
2022-12-09T03:58:18.573Z,21.10
2022-12-09T03:59:20.817Z,19.70
2022-12-09T04:00:22.260Z,21.47
2022-12-09T04:01:24.482Z,20.60
2022-12-09T04:02:26.559Z,19.00
2022-12-09T04:03:28.552Z,18.97
2022-12-09T04:04:30.504Z,21.83
2022-12-09T04:05:32.076Z,18.10
2022-12-09T04:06:33.895Z,20.43
2022-12-09T04:07:35.357Z,17.73
2022-12-09T04:08:37.114Z,17.60
2022-12-09T04:09:38.701Z,18.67
2022-12-09T04:10:40.406Z,17.63
2022-12-09T04:11:42.240Z,25.37
2022-12-09T04:12:43.908Z,17.23
2022-12-09T04:13:46.142Z,18.30
2022-12-09T04:14:47.776Z,20.37
2022-12-09T04:15:49.148Z,18.73
2022-12-09T04:16:50.836Z,19.60
2022-12-09T04:17:52.346Z,18.10
2022-12-09T04:18:54.081Z,19.30
2022-12-09T04:19:55.844Z,18.23
2022-12-09T04:20:57.645Z,17.70
2022-12-09T04:21:59.535Z,18.27
2022-12-09T04:23:01.263Z,20.33
2022-12-09T04:24:02.677Z,21.03
2022-12-09T04:25:04.501Z,20.90
2022-12-09T04:26:06.032Z,19.30
2022-12-09T04:27:07.799Z,20.83
2022-12-09T04:28:09.523Z,19.67
2022-12-09T04:29:11.504Z,17.77
2022-12-09T04:30:13.561Z,16.90
2022-12-09T04:31:16.529Z,19.77
2022-12-09T04:32:18.424Z,18.27
2022-12-09T04:33:19.881Z,17.93
2022-12-09T04:34:21.394Z,19.40
2022-12-09T04:35:23.130Z,18.73
2022-12-09T04:36:24.499Z,17.20
2022-12-09T04:37:26.780Z,20.80
2022-12-09T04:38:28.235Z,19.67
2022-12-09T04:39:30.231Z,17.93
2022-12-09T04:40:31.876Z,18.23
2022-12-09T04:41:33.600Z,18.03
2022-12-09T04:42:35.989Z,17.70
2022-12-09T04:43:38.564Z,22.43
2022-12-09T04:44:39.976Z,20.83
2022-12-09T04:45:42.412Z,18.63
2022-12-09T04:46:44.329Z,21.40
2022-12-09T04:47:47.646Z,18.93
2022-12-09T04:48:49.951Z,19.23
2022-12-09T04:49:52.501Z,22.73
2022-12-09T04:50:54.881Z,19.73
2022-12-09T04:51:56.468Z,18.13
2022-12-09T04:53:06.511Z,18.03
2022-12-09T04:54:13.021Z,19.13
2022-12-09T04:55:16.137Z,19.10
2022-12-09T04:56:23.667Z,20.00
2022-12-09T04:57:25.588Z,18.13
2022-12-09T04:58:26.992Z,19.10
2022-12-09T04:59:33.221Z,20.27
2022-12-09T05:00:34.982Z,19.77
2022-12-09T05:01:38.479Z,17.83
2022-12-09T05:02:43.027Z,18.67
2022-12-09T05:03:47.843Z,20.30
2022-12-09T05:04:50.081Z,20.93
2022-12-09T05:05:51.978Z,18.60
2022-12-09T05:06:54.244Z,16.67
2022-12-09T05:07:56.012Z,16.70
2022-12-09T05:08:57.933Z,18.57
2022-12-09T05:09:59.725Z,22.30
2022-12-09T05:11:01.669Z,18.67
2022-12-09T05:12:03.528Z,19.50
2022-12-09T05:13:05.442Z,19.50
2022-12-09T05:14:07.189Z,18.50
2022-12-09T05:15:09.104Z,17.73
2022-12-09T05:16:15.893Z,19.67
2022-12-09T05:17:18.349Z,18.03
2022-12-09T05:18:20.492Z,17.93
2022-12-09T05:19:22.116Z,19.17
2022-12-09T05:20:28.074Z,18.40
2022-12-09T05:21:30.100Z,17.80
2022-12-09T05:22:33.065Z,18.87
2022-12-09T05:23:35.664Z,21.17
2022-12-09T05:24:37.197Z,17.93
2022-12-09T05:25:38.964Z,19.53
2022-12-09T05:26:41.133Z,20.83
2022-12-09T05:27:42.899Z,19.63
2022-12-09T05:28:45.051Z,20.20
2022-12-09T05:29:46.969Z,19.80
2022-12-09T05:30:49.086Z,20.13
2022-12-09T05:31:51.785Z,20.43
2022-12-09T05:32:53.806Z,19.70
2022-12-09T05:33:55.593Z,19.17
2022-12-09T05:34:57.965Z,17.83
2022-12-09T05:36:00.103Z,18.93
2022-12-09T05:37:01.781Z,19.77
2022-12-09T05:38:03.912Z,23.00
2022-12-09T05:39:05.550Z,18.17
2022-12-09T05:40:08.941Z,20.13
2022-12-09T05:41:11.125Z,18.60
2022-12-09T05:42:12.748Z,18.80
2022-12-09T05:43:14.997Z,18.70
2022-12-09T05:44:17.070Z,16.93
2022-12-09T05:45:19.135Z,21.40
2022-12-09T05:46:21.036Z,18.57
2022-12-09T05:47:22.958Z,21.17
2022-12-09T05:48:25.145Z,19.63
2022-12-09T05:49:27.133Z,21.93
2022-12-09T05:50:30.406Z,18.23
2022-12-09T05:51:32.434Z,20.83
2022-12-09T05:52:37.789Z,18.83
2022-12-09T05:53:39.235Z,20.17
2022-12-09T05:54:40.991Z,19.00
2022-12-09T05:55:42.895Z,19.83
2022-12-09T05:56:48.060Z,20.57
2022-12-09T05:57:50.442Z,21.50
2022-12-09T05:58:52.291Z,18.97
2022-12-09T05:59:53.728Z,20.10
2022-12-09T06:00:57.276Z,21.70
2022-12-09T06:02:00.016Z,18.53
2022-12-09T06:03:02.962Z,20.83
2022-12-09T06:04:05.078Z,19.20
2022-12-09T06:05:07.846Z,19.03
2022-12-09T06:06:10.859Z,18.20
2022-12-09T06:07:13.234Z,18.27
2022-12-09T06:08:14.842Z,21.07
2022-12-09T06:09:16.771Z,16.97
2022-12-09T06:10:18.912Z,21.00
2022-12-09T06:11:21.365Z,19.70
2022-12-09T06:12:23.448Z,20.37
2022-12-09T06:13:25.291Z,19.23
2022-12-09T06:14:26.897Z,18.30
2022-12-09T06:15:33.246Z,22.30
2022-12-09T06:16:35.748Z,18.23
2022-12-09T06:17:38.097Z,17.87
2022-12-09T06:18:42.013Z,19.50
2022-12-09T06:19:49.823Z,21.13
2022-12-09T06:20:51.414Z,19.83
2022-12-09T06:21:52.758Z,18.10
2022-12-09T06:22:54.226Z,20.97
2022-12-09T06:23:56.153Z,16.00
2022-12-09T06:24:57.609Z,17.17
2022-12-09T06:25:59.513Z,19.13
2022-12-09T06:27:01.523Z,20.00
2022-12-09T06:28:04.028Z,18.77
2022-12-09T06:29:05.974Z,18.10
2022-12-09T06:30:07.785Z,16.23
2022-12-09T06:31:09.560Z,19.07
2022-12-09T06:32:11.594Z,19.13
2022-12-09T06:33:45.119Z,19.47
2022-12-09T06:34:34.881Z,16.70
2022-12-09T06:35:36.608Z,16.93
2022-12-09T06:36:38.656Z,19.27
2022-12-09T06:37:40.376Z,18.93
2022-12-09T06:38:42.060Z,21.67
2022-12-09T06:39:43.749Z,18.30
2022-12-09T06:40:45.370Z,20.03
2022-12-09T06:41:46.800Z,19.83
2022-12-09T06:42:51.269Z,19.70
2022-12-09T06:43:52.756Z,20.03
2022-12-09T06:44:54.532Z,18.80
2022-12-09T06:45:55.929Z,18.20
2022-12-09T06:46:57.652Z,19.13
2022-12-09T06:47:59.535Z,19.77
2022-12-09T06:49:01.035Z,18.93
2022-12-09T06:50:07.081Z,19.17
2022-12-09T06:51:09.672Z,16.93
2022-12-09T06:52:11.245Z,20.60
2022-12-09T06:53:13.107Z,17.97
2022-12-09T06:54:14.735Z,20.63
2022-12-09T06:55:16.242Z,18.60
2022-12-09T06:56:18.319Z,18.07
2022-12-09T06:57:20.111Z,18.40
2022-12-09T06:58:21.564Z,18.70
2022-12-09T06:59:23.078Z,20.73
2022-12-09T07:00:33.522Z,18.70
2022-12-09T07:01:35.932Z,19.77
2022-12-09T07:02:37.788Z,21.07
2022-12-09T07:03:42.243Z,18.70
2022-12-09T07:04:44.454Z,19.93
2022-12-09T07:05:46.210Z,19.07
2022-12-09T07:06:48.069Z,18.53
2022-12-09T07:07:50.647Z,22.17
2022-12-09T07:08:52.701Z,21.73
2022-12-09T07:09:54.193Z,21.10
2022-12-09T07:10:57.067Z,18.90
2022-12-09T07:11:58.747Z,17.70
2022-12-09T07:13:00.531Z,17.77
2022-12-09T07:14:02.305Z,19.57
2022-12-09T07:15:04.254Z,19.57
2022-12-09T07:16:06.234Z,18.77
2022-12-09T07:17:08.447Z,21.33
2022-12-09T07:18:10.228Z,18.80
2022-12-09T07:19:16.919Z,19.87
2022-12-09T07:20:18.908Z,18.63
2022-12-09T07:21:21.607Z,18.10
2022-12-09T07:22:23.848Z,19.83
2022-12-09T07:23:25.545Z,18.50
2022-12-09T07:24:32.153Z,19.00
2022-12-09T07:25:42.772Z,17.40
2022-12-09T07:26:52.748Z,18.83
2022-12-09T07:27:57.035Z,19.20
2022-12-09T07:29:01.279Z,19.23
2022-12-09T07:30:06.299Z,19.37
2022-12-09T07:31:17.126Z,17.93
2022-12-09T07:32:18.671Z,15.73
2022-12-09T07:33:20.362Z,19.33
2022-12-09T07:34:21.981Z,21.23
2022-12-09T07:35:23.633Z,17.27
2022-12-09T07:36:26.643Z,18.80
2022-12-09T07:37:28.340Z,20.57
2022-12-09T07:38:29.793Z,21.23
2022-12-09T07:39:31.670Z,19.17
2022-12-09T07:40:33.426Z,19.53
2022-12-09T07:41:35.271Z,19.43
2022-12-09T07:42:37.230Z,21.83
2022-12-09T07:43:39.814Z,20.87
2022-12-09T07:44:41.277Z,20.23
2022-12-09T07:45:43.010Z,21.93
2022-12-09T07:46:44.869Z,20.70
2022-12-09T07:47:46.824Z,18.80
2022-12-09T07:48:49.394Z,26.13
2022-12-09T07:49:51.432Z,30.60
2022-12-09T07:50:53.243Z,33.53
2022-12-09T07:51:56.702Z,34.10
2022-12-09T07:52:59.033Z,36.67
2022-12-09T07:54:00.470Z,39.97
2022-12-09T07:55:02.331Z,35.13
2022-12-09T07:56:05.265Z,30.47
2022-12-09T07:57:06.812Z,24.37
2022-12-09T07:58:08.406Z,27.33
2022-12-09T07:59:10.501Z,23.83
2022-12-09T08:00:13.582Z,24.73
2022-12-09T08:01:17.980Z,23.47
2022-12-09T08:02:19.587Z,25.07
2022-12-09T08:03:21.492Z,24.93
2022-12-09T08:04:23.158Z,28.33
2022-12-09T08:05:25.697Z,25.87
2022-12-09T08:06:28.509Z,24.83
2022-12-09T08:07:30.436Z,25.97
2022-12-09T08:08:32.997Z,23.83
2022-12-09T08:09:34.933Z,23.53
2022-12-09T08:10:36.989Z,28.83
2022-12-09T08:11:38.656Z,20.50
2022-12-09T08:12:40.189Z,19.40
2022-12-09T08:13:42.419Z,20.13
2022-12-09T08:14:43.961Z,21.77
2022-12-09T08:15:45.799Z,23.03
2022-12-09T08:16:47.713Z,20.43
2022-12-09T08:17:49.535Z,22.57
2022-12-09T08:18:51.616Z,22.20
2022-12-09T08:19:53.912Z,20.60
2022-12-09T08:20:55.496Z,21.50
2022-12-09T08:21:56.950Z,22.47
2022-12-09T08:22:58.550Z,17.87
2022-12-09T08:24:01.556Z,21.63
2022-12-09T08:25:03.019Z,18.50
2022-12-09T08:26:06.121Z,22.67
2022-12-09T08:27:07.632Z,19.43
2022-12-09T08:28:09.537Z,18.83
2022-12-09T08:29:13.024Z,21.13
2022-12-09T08:30:15.333Z,18.73
2022-12-09T08:31:18.852Z,21.37
2022-12-09T08:32:20.985Z,24.77
2022-12-09T08:33:22.985Z,19.93
2022-12-09T08:34:24.754Z,20.90
2022-12-09T08:35:27.527Z,22.93
2022-12-09T08:36:29.278Z,20.47
2022-12-09T08:37:31.043Z,19.57
2022-12-09T08:38:32.713Z,20.37
2022-12-09T08:39:34.400Z,20.87
2022-12-09T08:40:36.181Z,19.13
2022-12-09T08:41:38.892Z,19.30
2022-12-09T08:42:40.669Z,23.07
2022-12-09T08:43:42.929Z,25.03
2022-12-09T08:44:47.732Z,20.07
2022-12-09T08:45:49.401Z,19.60
2022-12-09T08:46:52.006Z,20.90
2022-12-09T08:47:54.146Z,19.73
2022-12-09T08:48:58.455Z,18.30
2022-12-09T08:50:03.077Z,18.37
2022-12-09T08:51:05.892Z,20.40
2022-12-09T08:52:07.455Z,19.53
2022-12-09T08:53:14.750Z,21.07
2022-12-09T08:54:16.610Z,20.77
2022-12-09T08:55:20.968Z,20.77
2022-12-09T08:56:25.122Z,21.37
2022-12-09T08:57:38.465Z,19.07
2022-12-09T08:58:41.072Z,20.33
2022-12-09T08:59:45.419Z,21.83
2022-12-09T09:00:47.567Z,21.47
2022-12-09T09:01:49.481Z,20.17
2022-12-09T09:02:51.100Z,18.00
2022-12-09T09:03:53.112Z,17.77
2022-12-09T09:04:54.875Z,17.30
2022-12-09T09:06:10.415Z,17.03
2022-12-09T09:07:13.205Z,21.00
2022-12-09T09:08:15.140Z,17.67
2022-12-09T09:09:17.019Z,21.20
2022-12-09T09:10:19.433Z,20.90
2022-12-09T09:11:21.536Z,21.37
2022-12-09T09:12:23.392Z,20.37
2022-12-09T09:13:25.101Z,21.70
2022-12-09T09:14:26.476Z,21.23
2022-12-09T09:15:28.265Z,22.07
2022-12-09T09:16:29.949Z,20.37
2022-12-09T09:17:31.677Z,21.57
2022-12-09T09:18:33.433Z,22.03
2022-12-09T09:19:35.132Z,20.27
2022-12-09T09:20:37.141Z,19.47
2022-12-09T09:21:38.593Z,18.73
2022-12-09T09:22:40.355Z,18.40
2022-12-09T09:23:42.224Z,19.50
2022-12-09T09:24:43.647Z,21.47
2022-12-09T09:25:45.541Z,21.00
2022-12-09T09:26:47.677Z,20.33
2022-12-09T09:27:49.131Z,18.77
2022-12-09T09:28:50.938Z,23.30
2022-12-09T09:29:52.998Z,20.37
2022-12-09T09:31:01.741Z,19.80
2022-12-09T09:32:03.833Z,19.50
2022-12-09T09:33:05.861Z,17.20
2022-12-09T09:34:07.720Z,20.90
2022-12-09T09:35:09.646Z,19.60
2022-12-09T09:36:13.517Z,19.87
2022-12-09T09:37:15.224Z,20.00
2022-12-09T09:38:16.913Z,18.77
2022-12-09T09:39:18.657Z,21.43
2022-12-09T09:40:20.421Z,19.27
2022-12-09T09:41:22.488Z,19.73
2022-12-09T09:42:27.808Z,20.03
2022-12-09T09:43:33.642Z,18.97
2022-12-09T09:44:36.926Z,19.13
2022-12-09T09:45:38.576Z,19.23
2022-12-09T09:46:42.739Z,18.30
2022-12-09T09:48:02.942Z,24.07
2022-12-09T09:49:07.577Z,21.17
2022-12-09T09:50:09.651Z,21.93
2022-12-09T09:51:14.632Z,20.80
2022-12-09T09:52:20.500Z,21.00
2022-12-09T09:53:26.967Z,22.67
2022-12-09T09:54:29.233Z,21.97
2022-12-09T09:55:36.159Z,24.13
2022-12-09T09:56:55.178Z,22.70
2022-12-09T09:58:05.586Z,20.37
2022-12-09T09:59:07.367Z,24.03
2022-12-09T10:00:22.864Z,21.43
2022-12-09T10:01:26.890Z,22.73
2022-12-09T10:02:43.868Z,24.80
2022-12-09T10:03:58.110Z,21.63
2022-12-09T10:05:13.484Z,20.57
2022-12-09T10:06:34.534Z,20.17
2022-12-09T10:07:43.923Z,21.73
2022-12-09T10:08:56.150Z,22.07
2022-12-09T10:10:18.803Z,21.97
2022-12-09T10:11:25.057Z,19.87
2022-12-09T10:12:46.080Z,18.93
2022-12-09T10:13:57.464Z,23.00
2022-12-09T10:15:09.146Z,20.00
2022-12-09T10:16:15.495Z,19.97
2022-12-09T10:17:29.229Z,23.10
2022-12-09T10:18:51.580Z,23.10
2022-12-09T10:19:55.495Z,24.50
2022-12-09T10:20:57.503Z,22.70
2022-12-09T10:22:00.137Z,21.93
2022-12-09T10:23:06.922Z,21.60
2022-12-09T10:24:18.447Z,21.63
2022-12-09T10:25:24.033Z,19.83
2022-12-09T10:26:27.431Z,23.60
2022-12-09T10:27:37.374Z,21.60
2022-12-09T10:28:42.485Z,19.53
2022-12-09T10:29:47.088Z,23.27
2022-12-09T10:30:49.431Z,24.23
2022-12-09T10:31:50.862Z,22.07
2022-12-09T10:32:54.357Z,25.63
2022-12-09T10:33:55.999Z,22.93
2022-12-09T10:34:58.218Z,23.53
2022-12-09T10:36:00.157Z,21.83
2022-12-09T10:37:01.776Z,19.83
2022-12-09T10:38:10.517Z,19.07
2022-12-09T10:39:15.272Z,18.23
2022-12-09T10:40:31.571Z,22.37
2022-12-09T10:41:54.769Z,22.07
2022-12-09T10:43:16.191Z,18.13
2022-12-09T10:44:19.800Z,19.27
2022-12-09T10:45:21.715Z,20.40
2022-12-09T10:46:24.713Z,18.13
2022-12-09T10:47:29.297Z,19.87
2022-12-09T10:48:34.180Z,21.97
2022-12-09T10:49:36.128Z,20.30
2022-12-09T10:50:38.039Z,19.60
2022-12-09T10:51:47.524Z,19.67
2022-12-09T10:52:49.388Z,18.60
2022-12-09T10:53:58.773Z,20.90
2022-12-09T10:55:00.533Z,22.60
2022-12-09T10:56:03.515Z,20.03
2022-12-09T10:57:13.978Z,24.33
2022-12-09T10:58:15.837Z,25.03
2022-12-09T10:59:24.873Z,22.33
2022-12-09T11:00:32.696Z,23.40
2022-12-09T11:01:53.635Z,22.70
2022-12-09T11:02:55.713Z,23.73
2022-12-09T11:03:57.945Z,22.90
2022-12-09T11:05:18.376Z,22.07
2022-12-09T11:06:31.397Z,27.13
2022-12-09T11:07:33.009Z,25.90
2022-12-09T11:08:34.684Z,21.13
2022-12-09T11:09:38.017Z,21.67
2022-12-09T11:10:48.303Z,24.03
2022-12-09T11:11:50.481Z,25.63
2022-12-09T11:12:53.368Z,23.07
2022-12-09T11:13:55.459Z,22.83
2022-12-09T11:15:02.084Z,23.40
2022-12-09T11:16:05.280Z,24.43
2022-12-09T11:17:27.592Z,24.47
2022-12-09T11:18:32.074Z,19.13
2022-12-09T11:19:35.153Z,20.63
2022-12-09T11:20:37.000Z,22.23
2022-12-09T11:21:39.516Z,19.43
2022-12-09T11:22:42.425Z,19.47
2022-12-09T11:23:57.171Z,23.57
2022-12-09T11:25:13.310Z,20.57
2022-12-09T11:26:25.889Z,20.97
2022-12-09T11:27:27.408Z,20.43
2022-12-09T11:28:30.227Z,17.40
2022-12-09T11:29:31.908Z,17.43
2022-12-09T11:30:57.499Z,20.23
2022-12-09T11:32:02.309Z,22.83
2022-12-09T11:33:13.380Z,18.87
2022-12-09T11:34:26.024Z,21.17
2022-12-09T11:35:37.621Z,18.80
2022-12-09T11:36:46.628Z,16.73
2022-12-09T11:37:47.995Z,18.67
2022-12-09T11:38:51.276Z,19.07
2022-12-09T11:39:52.667Z,19.93
2022-12-09T11:41:36.871Z,17.50
2022-12-09T11:42:42.199Z,17.43
2022-12-09T11:43:53.529Z,17.80
2022-12-09T11:45:03.278Z,17.97
2022-12-09T11:46:13.971Z,16.53
2022-12-09T11:47:25.670Z,16.03
2022-12-09T11:48:36.284Z,18.07
2022-12-09T11:49:49.490Z,16.70
2022-12-09T11:50:51.628Z,17.03
2022-12-09T11:52:00.643Z,15.37
2022-12-09T11:53:11.180Z,15.73
2022-12-09T11:54:24.108Z,15.80
2022-12-09T11:55:34.637Z,15.63
2022-12-09T11:56:36.742Z,17.47
2022-12-09T11:57:48.368Z,17.27
2022-12-09T11:59:05.304Z,18.37
2022-12-09T12:00:16.251Z,15.97
2022-12-09T12:01:17.548Z,13.83
2022-12-09T12:02:27.913Z,15.37
2022-12-09T12:03:47.369Z,17.03
2022-12-09T12:04:51.797Z,17.83
2022-12-09T12:05:54.890Z,16.87
2022-12-09T12:07:03.241Z,16.23
2022-12-09T12:08:07.694Z,18.63
2022-12-09T12:09:17.832Z,17.77
2022-12-09T12:10:23.625Z,17.70
2022-12-09T12:11:33.423Z,16.77
2022-12-09T12:12:34.805Z,17.37
2022-12-09T12:13:46.526Z,16.87
2022-12-09T12:14:50.065Z,16.67
2022-12-09T12:16:04.623Z,17.30
2022-12-09T12:17:24.550Z,18.07
2022-12-09T12:18:30.585Z,18.53
2022-12-09T12:19:34.896Z,17.67
2022-12-09T12:20:44.755Z,16.27
2022-12-09T12:21:53.763Z,14.67
2022-12-09T12:23:14.059Z,16.03
2022-12-09T12:24:33.703Z,17.37
2022-12-09T12:25:53.769Z,15.70
2022-12-09T12:26:58.170Z,16.07
2022-12-09T12:28:11.839Z,15.80
2022-12-09T12:29:28.597Z,14.50
2022-12-09T12:30:55.550Z,15.37
2022-12-09T12:32:15.837Z,17.87
2022-12-09T12:35:03.372Z,15.97
2022-12-09T12:36:12.079Z,14.43
2022-12-09T12:37:16.355Z,15.63
2022-12-09T12:38:23.174Z,15.50
2022-12-09T12:39:43.318Z,16.47
2022-12-09T12:41:06.414Z,16.57
2022-12-09T12:42:32.260Z,14.17
2022-12-09T12:43:52.252Z,16.97
2022-12-09T12:45:24.715Z,17.03
2022-12-09T12:46:27.109Z,14.73
2022-12-09T12:47:34.178Z,15.50
2022-12-09T12:48:46.050Z,16.27
2022-12-09T12:49:53.372Z,15.43
2022-12-09T12:50:54.657Z,16.10
2022-12-09T12:52:47.298Z,14.97
2022-12-09T12:53:53.568Z,17.43
2022-12-09T12:55:14.279Z,14.77
2022-12-09T12:56:16.968Z,17.60
2022-12-09T12:57:31.965Z,16.57
2022-12-09T12:58:39.026Z,16.93
2022-12-09T12:59:51.387Z,15.17
2022-12-09T13:01:03.122Z,15.77
2022-12-09T13:02:16.229Z,15.37
2022-12-09T13:03:25.928Z,14.87
2022-12-09T13:04:33.766Z,17.17
2022-12-09T13:05:36.777Z,18.07
2022-12-09T13:06:44.029Z,18.27
2022-12-09T13:07:55.797Z,17.17
2022-12-09T13:09:26.437Z,17.83
2022-12-09T13:10:45.055Z,17.23
2022-12-09T13:11:55.192Z,16.53
2022-12-09T13:12:58.425Z,17.03
2022-12-09T13:14:16.844Z,19.33
2022-12-09T13:15:19.668Z,18.63
2022-12-09T13:16:26.155Z,20.80
2022-12-09T13:17:28.846Z,19.63
2022-12-09T13:18:35.956Z,21.53
2022-12-09T13:19:43.387Z,22.90
2022-12-09T13:20:49.539Z,19.77
2022-12-09T13:21:54.444Z,20.10
2022-12-09T13:23:22.428Z,20.17
2022-12-09T13:24:34.114Z,20.00
2022-12-09T13:25:54.545Z,19.50
2022-12-09T13:27:05.984Z,21.07
2022-12-09T13:28:18.091Z,19.87
2022-12-09T13:29:57.959Z,20.17
2022-12-09T13:30:59.906Z,20.43
2022-12-09T13:32:19.912Z,21.17
2022-12-09T13:33:33.970Z,21.83
2022-12-09T13:34:42.968Z,22.07
2022-12-09T13:36:06.827Z,21.83
2022-12-09T13:37:27.264Z,20.23
2022-12-09T13:38:34.837Z,19.97
2022-12-09T13:39:38.982Z,19.87
2022-12-09T13:40:40.300Z,20.00
2022-12-09T13:42:03.866Z,20.93
2022-12-09T13:43:17.017Z,21.27
2022-12-09T13:44:21.825Z,18.77
2022-12-09T13:45:34.599Z,18.40
2022-12-09T13:46:36.180Z,17.73
2022-12-09T13:47:37.541Z,21.23
2022-12-09T13:48:45.329Z,19.87
2022-12-09T13:49:57.832Z,19.83
2022-12-09T13:50:59.797Z,20.70
2022-12-09T13:52:01.219Z,20.93
2022-12-09T13:53:19.363Z,21.03
2022-12-09T13:54:28.060Z,21.03
2022-12-09T13:55:37.354Z,21.67
2022-12-09T13:57:04.936Z,19.90
2022-12-09T13:58:23.322Z,19.30
2022-12-09T13:59:42.502Z,22.53
2022-12-09T14:00:44.297Z,21.70
2022-12-09T14:01:45.587Z,23.40